Time;durP1;ratioP1;P1;durP2;ratioP2;P2;SDS_P1;SDS_P2;PMS_P1;PMS_P2;Temp;Humidity;BMP_temperature;BMP_pressure;BME280_temperature;BME280_humidity;BME280_pressure;Samples;Min_cycle;Max_cycle;Signal;HPM_P1;HPM_P2
2022/09/05 00:01:41;;;;;;;4.77;4.00;;;17.40;99.90;;;;;;10463298;28;20229;-70
2022/09/05 00:06:54;;;;;;;7.03;4.17;;;17.30;99.90;;;;;;10466210;28;20210;-70
2022/09/05 00:11:59;;;;;;;3.90;3.60;;;17.30;99.90;;;;;;10466407;28;20270;-70
2022/09/05 00:17:37;;;;;;;3.90;3.50;;;17.30;99.90;;;;;;10444849;28;20213;-73
2022/09/05 00:23:01;;;;;;;4.07;3.67;;;17.30;99.90;;;;;;10461174;28;20216;-71
2022/09/05 00:28:20;;;;;;;5.00;3.70;;;17.30;99.90;;;;;;10457131;28;20232;-70
2022/09/05 00:33:58;;;;;;;5.63;3.80;;;17.20;99.90;;;;;;10453303;28;20221;-70
2022/09/05 00:39:08;;;;;;;4.00;3.60;;;17.20;99.90;;;;;;10469851;28;20225;-73
2022/09/05 00:44:12;;;;;;;4.17;3.77;;;17.10;99.90;;;;;;10471482;28;20915;-71
2022/09/05 00:49:44;;;;;;;5.07;3.90;;;17.10;99.90;;;;;;10466283;28;20213;-72
2022/09/05 00:55:15;;;;;;;5.73;3.57;;;17.10;99.90;;;;;;10482134;28;20214;-72
2022/09/05 01:00:29;;;;;;;5.20;3.83;;;17.00;99.90;;;;;;10463365;28;20218;-72
2022/09/05 01:06:03;;;;;;;4.07;3.50;;;17.00;99.90;;;;;;10464101;28;20243;-73
2022/09/05 01:11:23;;;;;;;6.20;4.07;;;16.90;99.90;;;;;;10479341;28;20224;-72
2022/09/05 01:17:01;;;;;;;4.03;3.40;;;17.00;99.90;;;;;;10465786;28;20244;-72
2022/09/05 01:22:37;;;;;;;4.13;3.73;;;17.00;99.90;;;;;;10469478;28;20567;-73
2022/09/05 01:28:03;;;;;;;5.33;3.80;;;17.00;99.90;;;;;;10485971;28;20244;-72
2022/09/05 01:33:25;;;;;;;5.97;4.43;;;17.00;99.90;;;;;;10476379;28;20219;-74
2022/09/05 01:38:35;;;;;;;4.40;3.90;;;16.90;99.90;;;;;;10463010;28;20711;-74
2022/09/05 01:44:00;;;;;;;4.27;3.17;;;16.90;99.90;;;;;;10462861;28;20312;-74
2022/09/05 01:49:31;;;;;;;4.13;3.63;;;16.90;99.90;;;;;;10465827;28;20220;-73
2022/09/05 01:54:41;;;;;;;4.73;3.20;;;16.80;99.90;;;;;;10455714;28;20228;-74
2022/09/05 02:00:04;;;;;;;3.93;3.20;;;16.80;99.90;;;;;;10466499;28;20238;-75
2022/09/05 02:05:43;;;;;;;3.47;3.17;;;16.90;99.90;;;;;;10458403;28;20219;-73
2022/09/05 02:11:04;;;;;;;4.27;3.20;;;16.90;99.90;;;;;;10461228;28;20216;-73
2022/09/05 02:16:05;;;;;;;3.73;2.90;;;16.90;99.90;;;;;;10470632;28;20303;-74
2022/09/05 02:21:21;;;;;;;3.67;3.13;;;16.90;99.90;;;;;;10456939;28;20212;-74
2022/09/05 02:27:00;;;;;;;3.30;2.70;;;16.90;99.90;;;;;;10468172;28;20309;-74
2022/09/05 02:32:35;;;;;;;5.87;3.90;;;16.90;99.90;;;;;;10465255;28;20302;-74
2022/09/05 02:37:48;;;;;;;3.77;3.47;;;16.80;99.90;;;;;;10453917;28;20308;-71
2022/09/05 02:42:55;;;;;;;4.00;3.53;;;16.70;99.90;;;;;;10465036;28;20248;-71
2022/09/05 02:47:58;;;;;;;3.33;3.00;;;16.60;99.90;;;;;;10476612;28;20305;-71
2022/09/05 02:53:00;;;;;;;3.50;3.20;;;16.60;99.90;;;;;;10459554;28;20259;-71
2022/09/05 02:58:32;;;;;;;3.17;2.90;;;16.50;99.90;;;;;;10471451;28;20220;-71
2022/09/05 03:03:56;;;;;;;3.30;2.97;;;16.50;99.90;;;;;;10461496;28;20570;-70
2022/09/05 03:09:12;;;;;;;2.63;2.43;;;16.50;99.90;;;;;;10459808;28;20282;-73
2022/09/05 03:15:00;;;;;;;4.20;2.97;;;16.50;99.90;;;;;;10459203;28;20222;-74
2022/09/05 03:20:19;;;;;;;3.20;2.90;;;16.50;99.90;;;;;;10451261;28;20223;-72
2022/09/05 03:25:25;;;;;;;6.10;2.83;;;16.50;99.90;;;;;;10459250;28;20245;-70
2022/09/05 03:30:58;;;;;;;3.37;2.70;;;16.50;99.90;;;;;;10467757;28;20217;-69
2022/09/05 03:36:39;;;;;;;3.53;3.13;;;16.50;99.90;;;;;;10456146;28;20227;-70
2022/09/05 03:41:55;;;;;;;2.73;2.53;;;16.60;99.90;;;;;;10459583;28;20263;-71
2022/09/05 03:47:24;;;;;;;2.80;2.60;;;16.60;99.90;;;;;;10471308;28;20240;-72
2022/09/05 03:53:22;;;;;;;3.33;3.03;;;16.50;99.90;;;;;;10459305;28;20267;-70
2022/09/05 03:58:45;;;;;;;4.47;3.00;;;16.50;99.90;;;;;;10404051;28;20232;-69
2022/09/05 04:03:53;;;;;;;3.73;3.17;;;16.40;99.90;;;;;;10452964;28;20971;-69
2022/09/05 04:09:16;;;;;;;3.60;3.30;;;16.40;99.90;;;;;;10469027;28;20303;-70
2022/09/05 04:14:37;;;;;;;5.60;3.70;;;16.40;99.90;;;;;;10471313;28;20687;-69
2022/09/05 04:19:40;;;;;;;5.10;3.30;;;16.30;99.90;;;;;;10471927;28;20262;-68
2022/09/05 04:24:44;;;;;;;3.60;3.00;;;16.40;99.90;;;;;;10465903;28;20223;-68
2022/09/05 04:30:23;;;;;;;3.53;3.23;;;16.30;99.90;;;;;;10466986;28;20357;-68
2022/09/05 04:35:32;;;;;;;3.00;2.70;;;16.20;99.90;;;;;;10451880;28;20304;-70
2022/09/05 04:40:57;;;;;;;3.90;3.07;;;16.20;99.90;;;;;;10464280;28;20215;-69
2022/09/05 04:46:04;;;;;;;3.90;3.60;;;16.20;99.90;;;;;;10456731;28;20225;-70
2022/09/05 04:51:08;;;;;;;3.73;3.43;;;16.10;99.90;;;;;;10460777;28;20245;-72
2022/09/05 04:56:13;;;;;;;3.60;3.30;;;16.10;99.90;;;;;;10462944;28;20703;-69
2022/09/05 05:01:37;;;;;;;4.30;3.70;;;16.10;99.90;;;;;;10461064;28;20718;-71
2022/09/05 05:06:57;;;;;;;3.43;3.13;;;16.10;99.90;;;;;;10464792;28;20220;-72
2022/09/05 05:12:04;;;;;;;4.77;3.30;;;16.20;99.90;;;;;;10461927;28;20294;-70
2022/09/05 05:17:22;;;;;;;3.90;3.47;;;16.20;99.90;;;;;;10470826;28;20222;-70
2022/09/05 05:22:25;;;;;;;4.63;3.20;;;16.30;99.90;;;;;;10459550;28;20731;-71
2022/09/05 05:27:44;;;;;;;5.70;3.67;;;16.50;99.90;;;;;;10458578;28;20214;-72
2022/09/05 05:32:50;;;;;;;8.00;3.60;;;16.60;99.90;;;;;;10468884;28;20220;-75
2022/09/05 05:37:54;;;;;;;6.00;3.33;;;16.80;99.90;;;;;;10466528;28;20212;-72
2022/09/05 05:43:13;;;;;;;5.80;3.80;;;17.00;99.90;;;;;;10459032;28;20226;-75
2022/09/05 05:48:17;;;;;;;7.33;3.40;;;17.20;99.90;;;;;;10455943;28;20213;-73
2022/09/05 05:53:26;;;;;;;4.00;2.87;;;17.40;99.90;;;;;;10474985;28;20231;-74
2022/09/05 05:58:53;;;;;;;4.80;2.90;;;17.70;99.90;;;;;;10455145;28;20216;-74
2022/09/05 06:04:28;;;;;;;2.43;2.33;;;19.20;99.90;;;;;;10464709;28;20600;-74
2022/09/05 06:10:06;;;;;;;2.97;2.40;;;23.00;99.90;;;;;;10457781;28;20219;-74
2022/09/05 06:15:48;;;;;;;4.60;2.67;;;26.20;97.90;;;;;;10462092;28;20265;-73
2022/09/05 06:21:22;;;;;;;2.73;2.17;;;26.10;91.30;;;;;;10468276;28;20501;-75
2022/09/05 06:26:48;;;;;;;7.13;2.60;;;25.10;92.80;;;;;;10476896;28;20219;-73
2022/09/05 06:31:59;;;;;;;4.00;2.50;;;23.50;95.90;;;;;;10472034;28;20211;-74
2022/09/05 06:37:25;;;;;;;3.57;2.30;;;22.40;99.80;;;;;;10471085;28;20227;-73
2022/09/05 06:42:54;;;;;;;3.20;2.60;;;22.10;99.90;;;;;;10474692;28;20241;-74
2022/09/05 06:48:19;;;;;;;5.83;2.70;;;21.60;99.90;;;;;;10475181;28;20215;-72
2022/09/05 06:53:48;;;;;;;3.23;2.40;;;21.50;99.90;;;;;;10466304;28;20223;-73
2022/09/05 06:59:33;;;;;;;3.63;2.57;;;21.60;99.90;;;;;;10465892;28;20219;-73
2022/09/05 07:05:07;;;;;;;7.97;2.60;;;21.30;99.90;;;;;;10415692;28;20241;-74
2022/09/05 07:10:22;;;;;;;5.23;2.60;;;21.50;99.90;;;;;;10457949;28;20585;-73
2022/09/05 07:15:34;;;;;;;4.70;2.57;;;21.70;99.90;;;;;;10464609;28;20605;-71
2022/09/05 07:20:57;;;;;;;3.57;2.00;;;21.70;99.90;;;;;;10472166;28;20212;-72
2022/09/05 07:25:58;;;;;;;3.47;2.00;;;21.60;99.90;;;;;;10469022;28;20231;-72
2022/09/05 07:31:02;;;;;;;4.33;2.30;;;21.60;99.90;;;;;;10474715;28;20230;-72
2022/09/05 07:36:09;;;;;;;2.50;2.30;;;21.70;99.90;;;;;;10470646;28;20222;-72
2022/09/05 07:41:22;;;;;;;2.10;1.97;;;22.70;99.90;;;;;;10470471;28;20218;-73
2022/09/05 07:46:31;;;;;;;4.60;1.73;;;26.30;96.60;;;;;;10463731;28;20321;-73
2022/09/05 07:51:34;;;;;;;3.20;1.97;;;29.40;86.70;;;;;;10463896;28;20304;-72
2022/09/05 07:56:56;;;;;;;2.30;2.10;;;29.40;72.80;;;;;;10469765;28;20566;-72
2022/09/05 08:01:59;;;;;;;6.53;2.00;;;29.50;70.50;;;;;;10458778;28;20210;-72
2022/09/05 08:07:11;;;;;;;2.00;1.80;;;29.90;67.50;;;;;;10471338;28;20249;-72
2022/09/05 08:12:19;;;;;;;2.17;1.97;;;31.30;63.20;;;;;;10461021;28;20212;-73
2022/09/05 08:17:24;;;;;;;2.40;2.17;;;32.00;59.20;;;;;;10482579;28;20219;-72
2022/09/05 08:22:32;;;;;;;2.03;1.70;;;32.70;57.00;;;;;;10469586;28;20223;-73
2022/09/05 08:28:06;;;;;;;3.80;1.77;;;35.70;50.40;;;;;;10461219;28;20214;-72
2022/09/05 08:33:21;;;;;;;3.67;1.83;;;38.30;42.30;;;;;;10471475;28;20231;-73
2022/09/05 08:38:23;;;;;;;2.33;1.60;;;38.60;40.50;;;;;;10461432;28;20223;-72
2022/09/05 08:43:32;;;;;;;2.47;2.00;;;39.20;37.40;;;;;;10456516;28;20341;-72
2022/09/05 08:48:39;;;;;;;2.07;1.60;;;40.00;36.40;;;;;;10456973;28;20208;-72
2022/09/05 08:53:53;;;;;;;3.53;2.00;;;40.60;35.40;;;;;;10464756;28;20224;-73
2022/09/05 08:59:20;;;;;;;5.40;1.77;;;40.10;34.80;;;;;;10466692;28;20709;-72
2022/09/05 09:04:41;;;;;;;3.40;1.80;;;41.80;33.70;;;;;;10457022;28;20269;-72
2022/09/05 09:09:54;;;;;;;2.03;1.23;;;42.90;32.20;;;;;;10467790;28;20227;-70
2022/09/05 09:14:58;;;;;;;2.93;1.53;;;42.90;31.10;;;;;;10474795;28;20710;-72
2022/09/05 09:20:13;;;;;;;3.10;1.60;;;43.30;30.00;;;;;;10467106;28;20215;-70
2022/09/05 09:25:20;;;;;;;5.70;1.57;;;43.00;30.30;;;;;;10473526;28;20211;-70
2022/09/05 09:30:21;;;;;;;5.00;1.70;;;43.20;30.30;;;;;;10464387;28;20307;-71
2022/09/05 09:35:24;;;;;;;3.17;1.80;;;44.10;29.50;;;;;;10470613;28;20207;-71
2022/09/05 09:40:57;;;;;;;3.87;2.00;;;39.70;34.10;;;;;;10465361;28;20227;-70
2022/09/05 09:46:08;;;;;;;2.40;1.73;;;38.10;36.50;;;;;;10478908;28;20215;-71
2022/09/05 09:51:30;;;;;;;6.27;1.60;;;36.60;39.00;;;;;;10473936;28;20242;-71
2022/09/05 09:57:03;;;;;;;2.70;1.60;;;37.50;38.80;;;;;;10473829;28;20224;-71
2022/09/05 10:02:41;;;;;;;4.00;1.73;;;41.20;34.10;;;;;;10469165;28;20216;-71
2022/09/05 10:08:06;;;;;;;3.57;1.47;;;44.40;30.00;;;;;;10478902;28;20220;-71
2022/09/05 10:13:49;;;;;;;6.45;1.70;;;46.60;28.20;;;;;;10478471;28;20725;-71
2022/09/05 10:19:29;;;;;;;2.97;1.45;;;47.20;27.40;;;;;;10463199;28;20273;-71
2022/09/05 10:24:42;;;;;;;2.45;1.70;;;45.90;27.50;;;;;;10467412;28;20215;-71
2022/09/05 10:29:54;;;;;;;4.53;2.03;;;47.30;27.00;;;;;;10467654;28;20219;-71
2022/09/05 10:35:22;;;;;;;2.60;1.83;;;46.70;26.50;;;;;;10464731;28;20224;-71
2022/09/05 10:40:26;;;;;;;2.83;1.60;;;45.60;27.50;;;;;;10481497;28;20240;-71
2022/09/05 10:45:45;;;;;;;4.60;1.80;;;45.60;27.20;;;;;;10464414;28;20207;-71
2022/09/05 10:51:05;;;;;;;2.43;1.57;;;44.60;27.60;;;;;;10467341;28;20208;-71
2022/09/05 10:56:14;;;;;;;3.92;1.70;;;45.20;27.50;;;;;;10470787;28;20232;-71
2022/09/05 11:01:36;;;;;;;4.35;1.60;;;46.40;26.90;;;;;;10454360;28;20237;-73
2022/09/05 11:06:53;;;;;;;3.25;1.70;;;46.10;26.60;;;;;;10468586;28;20638;-69
2022/09/05 11:12:15;;;;;;;1.90;1.70;;;45.60;26.30;;;;;;10471633;28;20234;-70
2022/09/05 11:17:30;;;;;;;4.30;1.43;;;40.50;30.50;;;;;;10464147;28;20269;-71
2022/09/05 11:22:39;;;;;;;2.80;1.70;;;36.30;36.20;;;;;;10461740;28;20219;-70
2022/09/05 11:27:45;;;;;;;3.23;2.20;;;33.40;41.20;;;;;;10461122;28;20219;-71
2022/09/05 11:33:05;;;;;;;4.90;1.90;;;32.20;43.20;;;;;;10466515;28;20637;-70
2022/09/05 11:38:18;;;;;;;3.27;1.87;;;31.40;44.50;;;;;;10472304;28;20212;-71
2022/09/05 11:43:40;;;;;;;2.20;1.53;;;31.70;45.10;;;;;;10453016;28;20290;-71
2022/09/05 11:49:11;;;;;;;3.40;1.83;;;32.00;45.30;;;;;;10469976;28;20207;-71
2022/09/05 11:54:30;;;;;;;2.30;1.87;;;32.00;45.20;;;;;;10468712;28;20717;-70
2022/09/05 12:00:09;;;;;;;2.23;2.03;;;32.00;45.50;;;;;;10462281;28;20234;-70
2022/09/05 12:05:51;;;;;;;2.60;1.50;;;32.30;44.60;;;;;;10462602;28;20227;-70
2022/09/05 12:11:07;;;;;;;3.67;1.70;;;32.50;41.90;;;;;;10464450;28;20231;-72
2022/09/05 12:16:58;;;;;;;2.77;1.87;;;32.60;42.70;;;;;;10467548;28;20790;-70
2022/09/05 12:22:20;;;;;;;1.83;1.50;;;32.70;42.70;;;;;;10481144;28;20232;-71
2022/09/05 12:27:28;;;;;;;1.90;1.30;;;32.60;43.00;;;;;;10451908;28;20219;-70
2022/09/05 12:32:32;;;;;;;1.93;1.70;;;32.40;42.70;;;;;;10472418;28;20212;-70
2022/09/05 12:37:59;;;;;;;2.00;1.60;;;32.30;43.00;;;;;;10463669;28;20236;-71
2022/09/05 12:43:03;;;;;;;2.33;1.50;;;32.20;42.60;;;;;;10478887;28;20227;-71
2022/09/05 12:48:10;;;;;;;1.70;1.57;;;32.20;42.40;;;;;;10462332;28;20219;-72
2022/09/05 12:53:17;;;;;;;1.40;1.30;;;32.00;42.50;;;;;;10468261;28;20228;-70
2022/09/05 12:58:26;;;;;;;4.93;1.67;;;31.90;42.80;;;;;;10477020;28;20687;-73
2022/09/05 13:03:29;;;;;;;2.17;2.00;;;31.90;42.60;;;;;;10464531;28;20257;-72
2022/09/05 13:08:56;;;;;;;2.23;2.07;;;31.80;42.90;;;;;;10478960;28;20696;-71
2022/09/05 13:14:11;;;;;;;1.77;1.50;;;31.90;42.70;;;;;;10479983;28;20227;-72
2022/09/05 13:19:29;;;;;;;3.83;1.53;;;32.20;42.00;;;;;;10466190;28;20215;-71
2022/09/05 13:24:37;;;;;;;2.30;1.67;;;32.30;41.90;;;;;;10469185;28;20820;-71
2022/09/05 13:29:57;;;;;;;1.60;1.50;;;32.30;41.40;;;;;;10464611;28;20203;-71
2022/09/05 13:35:16;;;;;;;2.00;1.77;;;32.20;41.90;;;;;;10475714;28;20259;-71
2022/09/05 13:40:21;;;;;;;2.67;1.97;;;32.20;41.60;;;;;;10454580;28;20631;-70
2022/09/05 13:45:22;;;;;;;2.57;1.80;;;32.10;42.30;;;;;;10463324;28;20222;-71
2022/09/05 13:50:29;;;;;;;1.60;1.50;;;32.10;41.60;;;;;;10465458;28;20215;-71
2022/09/05 13:55:52;;;;;;;4.20;1.70;;;32.00;41.60;;;;;;10478880;28;20218;-71
2022/09/05 14:01:34;;;;;;;1.70;1.57;;;31.90;41.20;;;;;;10478154;28;20700;-72
2022/09/05 14:07:08;;;;;;;2.93;1.90;;;31.60;41.40;;;;;;10461760;28;20231;-73
2022/09/05 14:12:22;;;;;;;2.03;1.80;;;31.50;41.60;;;;;;10471282;28;20190;-71
2022/09/05 14:17:54;;;;;;;2.67;1.60;;;31.30;42.30;;;;;;10466101;28;20239;-71
2022/09/05 14:23:07;;;;;;;3.17;1.67;;;31.10;42.60;;;;;;10463964;28;20219;-72
2022/09/05 14:28:21;;;;;;;3.00;1.33;;;31.10;42.30;;;;;;10479536;28;20674;-71
2022/09/05 14:33:44;;;;;;;1.73;1.57;;;31.00;42.20;;;;;;10467497;28;20215;-71
2022/09/05 14:38:44;;;;;;;3.67;2.03;;;31.00;42.30;;;;;;10475522;28;20215;-73
2022/09/05 14:44:23;;;;;;;1.50;1.40;;;30.90;42.10;;;;;;10473851;28;20219;-71
2022/09/05 14:49:33;;;;;;;3.10;1.87;;;30.70;41.60;;;;;;10472749;28;20218;-71
2022/09/05 14:54:38;;;;;;;2.20;1.57;;;30.70;42.60;;;;;;10469337;28;20706;-71
2022/09/05 14:59:46;;;;;;;2.73;1.67;;;30.60;42.90;;;;;;10474655;28;20234;-71
2022/09/05 15:04:54;;;;;;;2.97;1.70;;;30.50;43.90;;;;;;10469436;28;20249;-71
2022/09/05 15:10:37;;;;;;;2.20;1.60;;;30.50;43.90;;;;;;10471601;28;20220;-71
2022/09/05 15:15:43;;;;;;;1.70;1.60;;;30.50;43.30;;;;;;10405906;28;20287;-71
2022/09/05 15:20:47;;;;;;;2.80;1.80;;;30.40;43.80;;;;;;10471844;28;20227;-72
2022/09/05 15:25:50;;;;;;;5.70;2.10;;;30.20;44.00;;;;;;10473767;28;20232;-71
2022/09/05 15:30:56;;;;;;;2.20;1.80;;;30.00;44.00;;;;;;10472015;28;20227;-72
2022/09/05 15:35:58;;;;;;;4.20;1.83;;;29.90;44.20;;;;;;10475438;28;20245;-72
2022/09/05 15:41:19;;;;;;;5.37;1.87;;;29.90;43.50;;;;;;10470491;28;20226;-72
2022/09/05 15:46:25;;;;;;;3.13;1.60;;;29.70;43.10;;;;;;10461527;28;20232;-70
2022/09/05 15:51:43;;;;;;;3.40;1.73;;;29.60;42.70;;;;;;10475072;28;20215;-72
2022/09/05 15:56:47;;;;;;;1.60;1.50;;;29.40;42.50;;;;;;10471894;28;20214;-71
2022/09/05 16:01:49;;;;;;;1.57;1.47;;;29.20;42.50;;;;;;10476590;28;20615;-71
2022/09/05 16:06:56;;;;;;;1.63;1.53;;;29.10;42.70;;;;;;10470379;28;20215;-71
2022/09/05 16:11:58;;;;;;;3.37;1.50;;;29.00;42.90;;;;;;10476159;28;20737;-72
2022/09/05 16:17:10;;;;;;;5.10;1.63;;;28.80;43.10;;;;;;10476526;28;20769;-71
2022/09/05 16:22:21;;;;;;;1.53;1.43;;;28.60;43.20;;;;;;10484255;28;20724;-71
2022/09/05 16:27:49;;;;;;;10.47;2.10;;;28.40;43.30;;;;;;10469968;28;20223;-71
2022/09/05 16:32:57;;;;;;;1.47;1.30;;;28.30;44.00;;;;;;10478523;28;20226;-71
2022/09/05 16:38:18;;;;;;;3.50;1.90;;;28.10;44.50;;;;;;10482075;28;20221;-71
2022/09/05 16:43:34;;;;;;;2.00;1.40;;;28.00;44.90;;;;;;10467145;28;20243;-71
2022/09/05 16:49:09;;;;;;;5.20;1.40;;;27.80;44.90;;;;;;10476000;28;20233;-71
2022/09/05 16:54:32;;;;;;;1.67;1.50;;;27.70;45.00;;;;;;10465749;28;20391;-72
2022/09/05 16:59:37;;;;;;;4.73;2.03;;;27.50;45.00;;;;;;10471384;28;20810;-72
2022/09/05 17:05:23;;;;;;;4.10;2.07;;;27.30;45.40;;;;;;10476718;28;20230;-72
2022/09/05 17:10:45;;;;;;;1.60;1.40;;;27.10;46.10;;;;;;10468912;28;20225;-72
2022/09/05 17:15:50;;;;;;;1.77;1.50;;;26.90;46.70;;;;;;10476655;28;20237;-72
2022/09/05 17:20:57;;;;;;;2.03;1.93;;;26.70;47.00;;;;;;10475763;28;20221;-72
2022/09/05 17:26:03;;;;;;;2.67;2.47;;;26.50;47.50;;;;;;10472651;28;20277;-71
2022/09/05 17:31:05;;;;;;;3.50;2.00;;;26.20;48.10;;;;;;10479247;28;20219;-71
2022/09/05 17:36:38;;;;;;;2.80;1.90;;;26.00;48.70;;;;;;10472563;28;20225;-70
2022/09/05 17:41:57;;;;;;;3.03;2.30;;;25.70;49.30;;;;;;10471814;28;20692;-72
2022/09/05 17:47:07;;;;;;;3.13;2.47;;;25.50;50.50;;;;;;10496713;28;20262;-71
2022/09/05 17:52:16;;;;;;;3.53;3.00;;;25.20;51.50;;;;;;10473482;28;20229;-72
2022/09/05 17:57:26;;;;;;;5.47;4.13;;;25.00;52.50;;;;;;10464099;28;20219;-70
2022/09/05 18:02:32;;;;;;;6.73;4.40;;;24.80;53.80;;;;;;10472524;28;20219;-70
2022/09/05 18:07:33;;;;;;;5.20;3.67;;;24.50;54.70;;;;;;10474502;28;20216;-70
2022/09/05 18:12:39;;;;;;;3.97;3.57;;;24.30;55.40;;;;;;10475660;28;20242;-70
2022/09/05 18:17:40;;;;;;;3.67;3.03;;;24.10;56.20;;;;;;10472252;28;20207;-71
2022/09/05 18:22:57;;;;;;;3.30;3.00;;;23.90;56.90;;;;;;10474099;28;20224;-71
2022/09/05 18:28:36;;;;;;;2.87;2.43;;;23.80;58.10;;;;;;10471152;28;20218;-71
2022/09/05 18:33:37;;;;;;;7.77;4.67;;;23.60;58.20;;;;;;10467941;28;20682;-71
2022/09/05 18:38:37;;;;;;;4.43;3.37;;;23.50;59.10;;;;;;10470136;28;20220;-72
2022/09/05 18:43:49;;;;;;;4.63;2.60;;;23.40;59.30;;;;;;10473105;28;20232;-70
2022/09/05 18:48:58;;;;;;;4.43;2.70;;;23.20;58.70;;;;;;10474177;28;20359;-71
2022/09/05 18:54:02;;;;;;;6.00;3.03;;;23.00;59.40;;;;;;10468586;28;20240;-71
2022/09/05 18:59:11;;;;;;;4.93;3.50;;;23.00;60.50;;;;;;10477996;28;20738;-71
2022/09/05 19:04:27;;;;;;;4.20;3.60;;;22.90;61.70;;;;;;10466368;28;20767;-71
2022/09/05 19:09:30;;;;;;;5.00;3.80;;;22.80;62.10;;;;;;10464015;28;20294;-72
2022/09/05 19:14:41;;;;;;;5.13;3.40;;;22.80;62.80;;;;;;10475026;28;20745;-72
2022/09/05 19:20:12;;;;;;;3.87;3.30;;;22.70;63.50;;;;;;10460651;28;20598;-73
2022/09/05 19:25:17;;;;;;;4.17;3.67;;;22.60;63.70;;;;;;10471677;28;20228;-72
2022/09/05 19:30:39;;;;;;;5.03;4.13;;;22.50;64.20;;;;;;10461904;28;20218;-71
2022/09/05 19:35:40;;;;;;;5.97;4.10;;;22.40;64.50;;;;;;10477477;28;20215;-73
2022/09/05 19:40:44;;;;;;;5.73;3.97;;;22.30;64.90;;;;;;10464917;28;20238;-70
2022/09/05 19:45:45;;;;;;;5.77;3.80;;;22.20;65.70;;;;;;10468892;28;20223;-71
2022/09/05 19:50:46;;;;;;;5.83;4.70;;;22.10;65.90;;;;;;10471966;28;20245;-72
2022/09/05 19:55:47;;;;;;;5.63;4.53;;;22.00;67.00;;;;;;10471981;28;20223;-70
2022/09/05 20:01:01;;;;;;;6.93;5.07;;;21.90;66.80;;;;;;10472435;28;20229;-73
2022/09/05 20:06:02;;;;;;;7.30;4.97;;;21.90;66.70;;;;;;10466280;28;20310;-74
2022/09/05 20:11:04;;;;;;;6.93;4.83;;;21.90;65.90;;;;;;10460206;28;20306;-75
2022/09/05 20:16:10;;;;;;;6.73;5.47;;;21.90;67.00;;;;;;10474278;28;20220;-71
2022/09/05 20:21:19;;;;;;;8.83;4.80;;;21.90;67.30;;;;;;10473672;28;20215;-72
2022/09/05 20:26:23;;;;;;;5.50;3.90;;;21.80;66.60;;;;;;10460951;28;20230;-72
2022/09/05 20:31:26;;;;;;;6.00;3.77;;;21.80;66.50;;;;;;10473753;28;20713;-73
2022/09/05 20:36:34;;;;;;;5.37;3.90;;;21.80;66.20;;;;;;10475686;28;20225;-74
2022/09/05 20:41:36;;;;;;;5.07;3.87;;;21.90;66.00;;;;;;10470149;28;20742;-73
2022/09/05 20:46:40;;;;;;;6.87;3.77;;;21.90;65.90;;;;;;10470954;28;20230;-74
2022/09/05 20:51:44;;;;;;;6.63;3.33;;;22.00;65.70;;;;;;10466522;28;20718;-74
2022/09/05 20:56:47;;;;;;;6.80;3.73;;;22.00;65.50;;;;;;10466251;28;20231;-74
2022/09/05 21:02:03;;;;;;;6.90;4.20;;;21.80;66.00;;;;;;10467575;28;20714;-73
2022/09/05 21:07:18;;;;;;;9.47;4.17;;;21.70;68.10;;;;;;10479489;28;20234;-74
2022/09/05 21:12:25;;;;;;;9.70;6.30;;;21.50;70.60;;;;;;10450127;28;20223;-74
2022/09/05 21:17:26;;;;;;;6.93;3.17;;;21.40;71.60;;;;;;10480718;28;20222;-74
2022/09/05 21:22:34;;;;;;;17.23;3.70;;;21.40;70.00;;;;;;10474558;28;20642;-74
2022/09/05 21:27:34;;;;;;;3.93;2.90;;;21.40;69.20;;;;;;10477521;28;20219;-74
2022/09/05 21:32:35;;;;;;;6.67;3.83;;;21.30;69.20;;;;;;10478625;28;20222;-74
2022/09/05 21:37:37;;;;;;;4.27;3.00;;;21.20;70.10;;;;;;10492507;28;20227;-75
2022/09/05 21:42:38;;;;;;;6.23;2.67;;;21.30;68.20;;;;;;10477220;28;20223;-74
2022/09/05 21:47:38;;;;;;;8.03;2.90;;;21.40;67.60;;;;;;10476146;28;20216;-73
2022/09/05 21:52:39;;;;;;;3.43;2.67;;;21.50;66.90;;;;;;10477014;28;20310;-75
2022/09/05 21:57:40;;;;;;;3.60;2.57;;;21.50;66.90;;;;;;10474656;28;20253;-74
2022/09/05 22:02:40;;;;;;;4.10;2.90;;;21.40;67.60;;;;;;10474386;28;20230;-75
2022/09/05 22:07:42;;;;;;;3.70;2.77;;;21.30;68.50;;;;;;10476765;28;20265;-73
2022/09/05 22:12:42;;;;;;;6.97;2.73;;;21.30;68.20;;;;;;10470739;28;20634;-74
2022/09/05 22:17:44;;;;;;;13.40;4.13;;;21.30;69.10;;;;;;10491823;28;20306;-74
2022/09/05 22:22:45;;;;;;;7.70;3.93;;;21.20;70.80;;;;;;10474932;28;20310;-75
2022/09/05 22:27:46;;;;;;;14.73;4.50;;;21.20;73.50;;;;;;10475833;28;20365;-75
2022/09/05 22:32:46;;;;;;;4.37;3.63;;;21.00;74.10;;;;;;10471109;28;20253;-73
2022/09/05 22:37:48;;;;;;;3.57;3.27;;;20.90;75.30;;;;;;10475880;28;20212;-74
2022/09/05 22:42:56;;;;;;;6.03;3.83;;;20.80;76.00;;;;;;10490206;28;20694;-75
2022/09/05 22:47:57;;;;;;;8.57;4.00;;;20.70;77.30;;;;;;10473287;28;20242;-75
2022/09/05 22:52:59;;;;;;;4.93;4.03;;;20.60;78.80;;;;;;10473695;28;20763;-75
2022/09/05 22:58:00;;;;;;;6.53;3.97;;;20.60;79.20;;;;;;10476626;28;20690;-76
2022/09/05 23:03:03;;;;;;;5.33;3.40;;;20.50;78.20;;;;;;10471472;28;20306;-73
2022/09/05 23:08:05;;;;;;;4.87;3.70;;;20.50;77.20;;;;;;10476417;28;20212;-74
2022/09/05 23:13:07;;;;;;;4.13;3.73;;;20.50;79.60;;;;;;10470594;28;20211;-74
2022/09/05 23:18:08;;;;;;;6.57;4.17;;;20.50;80.60;;;;;;10476913;28;20223;-74
2022/09/05 23:23:08;;;;;;;4.63;3.73;;;20.50;80.00;;;;;;10464997;28;20234;-74
2022/09/05 23:28:09;;;;;;;4.27;3.73;;;20.40;79.80;;;;;;10475387;28;20215;-72
2022/09/05 23:33:10;;;;;;;4.30;3.40;;;20.30;79.70;;;;;;10470807;28;20212;-73
2022/09/05 23:38:11;;;;;;;4.47;3.67;;;20.20;80.70;;;;;;10476961;28;20788;-75
2022/09/05 23:43:11;;;;;;;4.53;3.80;;;20.10;81.20;;;;;;10467797;28;20628;-75
2022/09/05 23:48:15;;;;;;;6.80;3.50;;;20.00;81.80;;;;;;10477103;28;20218;-74
2022/09/05 23:53:16;;;;;;;4.10;3.70;;;19.90;82.90;;;;;;10442792;28;20219;-75
2022/09/05 23:58:16;;;;;;;4.47;3.47;;;19.80;84.10;;;;;;10469192;28;20220;-73
